createdAt,value
2023-01-25T00:00:42.891Z,6.30
2023-01-25T00:03:11.311Z,5.88
2023-01-25T00:05:39.760Z,6.53
2023-01-25T00:08:09.408Z,6.53
2023-01-25T00:10:37.677Z,7.10
2023-01-25T00:13:05.935Z,6.38
2023-01-25T00:15:34.261Z,6.25
2023-01-25T00:18:02.510Z,6.32
2023-01-25T00:20:30.903Z,6.85
2023-01-25T00:22:59.171Z,6.78
2023-01-25T00:25:28.711Z,7.03
2023-01-25T00:27:56.973Z,6.97
2023-01-25T00:30:25.661Z,7.15
2023-01-25T00:32:56.377Z,6.20
2023-01-25T00:35:24.709Z,6.05
2023-01-25T00:37:54.547Z,6.38
2023-01-25T00:40:22.827Z,6.57
2023-01-25T00:42:52.431Z,6.22
2023-01-25T00:45:21.259Z,6.18
2023-01-25T00:47:49.599Z,6.30
2023-01-25T00:50:18.051Z,6.35
2023-01-25T00:52:46.311Z,6.22
2023-01-25T00:55:14.916Z,7.00
2023-01-25T00:57:43.206Z,5.93
2023-01-25T01:00:13.670Z,6.70
2023-01-25T01:02:42.012Z,7.38
2023-01-25T01:05:11.177Z,6.95
2023-01-25T01:07:40.109Z,7.28
2023-01-25T01:10:09.013Z,6.97
2023-01-25T01:12:37.300Z,7.38
2023-01-25T01:15:07.578Z,7.03
2023-01-25T01:17:37.871Z,7.15
2023-01-25T01:20:06.548Z,7.00
2023-01-25T01:22:34.789Z,6.93
2023-01-25T01:25:03.085Z,7.68
2023-01-25T01:27:31.400Z,7.03
2023-01-25T01:29:59.715Z,7.35
2023-01-25T01:32:28.191Z,7.15
2023-01-25T01:34:58.439Z,7.07
2023-01-25T01:37:26.759Z,7.10
2023-01-25T01:39:55.087Z,7.18
2023-01-25T01:42:23.399Z,7.40
2023-01-25T01:44:52.586Z,7.35
2023-01-25T01:47:24.194Z,7.15
2023-01-25T01:49:57.887Z,7.40
2023-01-25T01:52:30.261Z,7.25
2023-01-25T01:55:01.130Z,7.15
2023-01-25T01:57:32.319Z,7.18
2023-01-25T02:00:02.558Z,6.97
2023-01-25T02:02:41.544Z,6.95
2023-01-25T02:05:14.176Z,7.28
2023-01-25T02:07:43.950Z,7.30
2023-01-25T02:10:13.636Z,6.63
2023-01-25T02:12:44.091Z,7.57
2023-01-25T02:15:12.712Z,7.10
2023-01-25T02:17:41.512Z,7.18
2023-01-25T02:20:19.212Z,6.82
2023-01-25T02:22:55.017Z,6.95
2023-01-25T02:25:24.670Z,7.55
2023-01-25T02:27:55.361Z,7.07
2023-01-25T02:30:24.315Z,7.60
2023-01-25T02:32:52.914Z,7.45
2023-01-25T02:35:22.190Z,7.00
2023-01-25T02:37:51.316Z,7.30
2023-01-25T02:40:20.240Z,7.13
2023-01-25T02:42:50.327Z,6.65
2023-01-25T02:45:24.214Z,7.43
2023-01-25T02:47:54.267Z,7.30
2023-01-25T02:50:22.617Z,6.50
2023-01-25T02:52:51.036Z,7.07
2023-01-25T02:55:19.833Z,6.07
2023-01-25T02:57:50.115Z,7.45
2023-01-25T03:00:18.691Z,6.95
2023-01-25T03:02:47.971Z,6.97
2023-01-25T03:05:16.284Z,6.45
2023-01-25T03:07:45.231Z,7.05
2023-01-25T03:10:14.379Z,6.72
2023-01-25T03:12:42.803Z,6.35
2023-01-25T03:15:12.829Z,6.35
2023-01-25T03:17:41.238Z,6.05
2023-01-25T03:20:11.080Z,6.72
2023-01-25T03:22:41.396Z,6.75
2023-01-25T03:25:11.043Z,6.43
2023-01-25T03:27:44.314Z,6.20
2023-01-25T03:30:14.775Z,6.35
2023-01-25T03:32:43.243Z,6.93
2023-01-25T03:35:15.736Z,6.43
2023-01-25T03:37:44.554Z,6.55
2023-01-25T03:40:15.036Z,5.97
2023-01-25T03:42:47.957Z,6.45
2023-01-25T03:45:17.887Z,6.10
2023-01-25T03:47:46.167Z,6.53
2023-01-25T03:50:15.750Z,6.72
2023-01-25T03:52:48.193Z,7.18
2023-01-25T03:55:17.081Z,7.03
2023-01-25T03:57:48.979Z,7.07
2023-01-25T04:00:20.296Z,6.40
2023-01-25T04:02:56.931Z,5.80
2023-01-25T04:05:25.319Z,6.63
2023-01-25T04:07:54.704Z,6.60
2023-01-25T04:10:31.015Z,6.82
2023-01-25T04:12:59.467Z,7.68
2023-01-25T04:15:29.118Z,7.05
2023-01-25T04:18:02.031Z,7.15
2023-01-25T04:20:30.339Z,7.20
2023-01-25T04:22:58.665Z,7.30
2023-01-25T04:25:33.491Z,7.57
2023-01-25T04:28:02.055Z,7.60
2023-01-25T04:30:31.846Z,7.95
2023-01-25T04:33:04.462Z,7.32
2023-01-25T04:35:33.416Z,7.40
2023-01-25T04:38:03.722Z,7.65
2023-01-25T04:40:37.960Z,7.13
2023-01-25T04:43:07.241Z,7.70
2023-01-25T04:45:37.719Z,7.63
2023-01-25T04:48:12.678Z,7.72
2023-01-25T04:50:47.798Z,6.93
2023-01-25T04:53:16.447Z,7.43
2023-01-25T04:55:48.718Z,7.75
2023-01-25T04:58:17.655Z,6.70
2023-01-25T05:00:47.443Z,6.63
2023-01-25T05:03:15.786Z,6.50
2023-01-25T05:05:46.871Z,7.25
2023-01-25T05:08:17.750Z,7.38
2023-01-25T05:10:46.764Z,7.88
2023-01-25T05:13:34.518Z,6.60
2023-01-25T05:16:30.490Z,7.03
2023-01-25T05:18:59.879Z,7.35
2023-01-25T05:21:55.506Z,7.07
2023-01-25T05:24:24.320Z,6.90
2023-01-25T05:27:00.631Z,6.57
2023-01-25T05:29:36.642Z,6.43
2023-01-25T05:32:10.108Z,6.32
2023-01-25T05:34:40.337Z,5.95
2023-01-25T05:37:09.481Z,6.53
2023-01-25T05:39:41.897Z,7.32
2023-01-25T05:42:12.602Z,7.10
2023-01-25T05:44:40.999Z,7.45
2023-01-25T05:47:13.863Z,6.82
2023-01-25T05:49:42.232Z,7.13
2023-01-25T05:52:14.962Z,7.05
2023-01-25T05:54:43.725Z,7.15
2023-01-25T05:57:15.048Z,7.32
2023-01-25T05:59:43.482Z,7.75
2023-01-25T06:02:15.409Z,7.85
2023-01-25T06:04:45.089Z,7.15
2023-01-25T06:07:14.691Z,7.03
2023-01-25T06:09:43.870Z,8.02
2023-01-25T06:12:12.345Z,7.97
2023-01-25T06:14:40.673Z,7.65
2023-01-25T06:17:09.026Z,6.85
2023-01-25T06:20:02.577Z,7.30
2023-01-25T06:22:36.996Z,7.68
2023-01-25T06:25:05.575Z,9.65
2023-01-25T06:27:33.870Z,8.13
2023-01-25T06:30:02.197Z,7.55
2023-01-25T06:32:33.616Z,7.78
2023-01-25T06:35:03.381Z,7.75
2023-01-25T06:37:31.840Z,7.93
2023-01-25T06:40:00.161Z,7.82
2023-01-25T06:42:28.516Z,7.90
2023-01-25T06:44:57.017Z,8.52
2023-01-25T06:47:25.335Z,7.70
2023-01-25T06:49:54.437Z,9.07
2023-01-25T06:52:24.102Z,7.72
2023-01-25T06:54:52.515Z,8.23
2023-01-25T06:57:20.832Z,8.13
2023-01-25T06:59:49.097Z,7.55
2023-01-25T07:02:17.626Z,7.78
2023-01-25T07:04:45.964Z,9.68
2023-01-25T07:07:14.272Z,8.30
2023-01-25T07:09:43.870Z,8.73
2023-01-25T07:12:12.165Z,8.07
2023-01-25T07:14:40.441Z,8.18
2023-01-25T07:17:08.706Z,8.27
2023-01-25T07:19:36.975Z,7.97
2023-01-25T07:22:05.394Z,9.20
2023-01-25T07:24:33.775Z,8.35
2023-01-25T07:27:03.445Z,9.95
2023-01-25T07:29:31.817Z,12.05
2023-01-25T07:32:00.131Z,8.02
2023-01-25T07:34:29.070Z,7.35
2023-01-25T07:36:57.344Z,7.40
2023-01-25T07:39:25.652Z,7.40
2023-01-25T07:41:53.944Z,10.07
2023-01-25T07:44:23.667Z,7.97
2023-01-25T07:46:56.546Z,7.47
2023-01-25T07:49:24.850Z,7.90
2023-01-25T07:51:53.101Z,8.00
2023-01-25T07:54:21.415Z,8.35
2023-01-25T07:56:49.725Z,8.15
2023-01-25T07:59:18.022Z,8.23
2023-01-25T08:01:47.708Z,8.38
2023-01-25T08:04:15.973Z,8.10
2023-01-25T08:06:46.412Z,9.45
2023-01-25T08:09:17.240Z,9.10
2023-01-25T08:11:45.672Z,9.15
2023-01-25T08:14:13.912Z,9.10
2023-01-25T08:16:43.448Z,8.50
2023-01-25T08:19:13.369Z,8.13
2023-01-25T08:21:41.797Z,8.52
2023-01-25T08:24:10.490Z,9.30
2023-01-25T08:26:39.026Z,8.45
2023-01-25T08:29:07.442Z,8.45
2023-01-25T08:31:37.043Z,9.20
2023-01-25T08:34:07.565Z,9.40
2023-01-25T08:36:40.336Z,8.82
2023-01-25T08:39:12.745Z,8.57
2023-01-25T08:41:42.180Z,8.77
2023-01-25T08:44:22.183Z,9.55
2023-01-25T08:46:56.782Z,9.43
2023-01-25T08:49:39.032Z,10.07
2023-01-25T08:52:21.762Z,10.18
2023-01-25T08:54:52.170Z,10.27
2023-01-25T08:57:20.965Z,10.00
2023-01-25T08:59:54.138Z,10.30
2023-01-25T09:02:36.144Z,9.30
2023-01-25T09:05:09.257Z,10.73
2023-01-25T09:07:43.480Z,9.85
2023-01-25T09:10:12.430Z,9.02
2023-01-25T09:12:44.407Z,8.20
2023-01-25T09:15:17.379Z,8.43
2023-01-25T09:17:46.561Z,9.13
2023-01-25T09:20:15.938Z,7.72
2023-01-25T09:22:46.338Z,9.50
2023-01-25T09:25:16.249Z,8.50
2023-01-25T09:27:45.430Z,8.75
2023-01-25T09:30:24.673Z,9.32
2023-01-25T09:33:09.333Z,9.70
2023-01-25T09:35:40.735Z,9.32
2023-01-25T09:38:11.434Z,9.57
2023-01-25T09:40:43.293Z,9.95
2023-01-25T09:43:22.066Z,8.98
2023-01-25T09:45:54.243Z,13.02
2023-01-25T09:48:28.823Z,12.55
2023-01-25T09:51:17.674Z,9.43
2023-01-25T09:53:56.324Z,9.13
2023-01-25T09:56:32.090Z,9.60
2023-01-25T09:59:05.752Z,15.32
2023-01-25T10:01:42.989Z,11.05
2023-01-25T10:04:27.505Z,11.27
2023-01-25T10:07:01.521Z,8.63
2023-01-25T10:09:39.156Z,9.65
2023-01-25T10:12:14.804Z,9.07
2023-01-25T10:14:45.865Z,8.73
2023-01-25T10:17:20.940Z,9.15
2023-01-25T10:20:01.900Z,8.93
2023-01-25T10:22:36.588Z,9.63
2023-01-25T10:25:22.759Z,8.73
2023-01-25T10:28:06.706Z,11.95
2023-01-25T10:30:44.840Z,9.00
2023-01-25T10:33:25.368Z,9.05
2023-01-25T10:36:00.547Z,9.07
2023-01-25T10:38:34.583Z,7.78
2023-01-25T10:41:07.623Z,9.05
2023-01-25T10:43:37.541Z,8.45
2023-01-25T10:46:14.867Z,10.25
2023-01-25T10:48:43.231Z,8.45
2023-01-25T10:51:12.012Z,9.32
2023-01-25T10:53:49.971Z,9.10
2023-01-25T10:56:30.600Z,9.13
2023-01-25T10:59:10.224Z,10.82
2023-01-25T11:01:47.891Z,26.17
2023-01-25T11:04:31.985Z,30.33
2023-01-25T11:07:03.482Z,10.93
2023-01-25T11:09:41.321Z,9.25
2023-01-25T11:12:24.360Z,9.23
2023-01-25T11:15:23.014Z,9.70
2023-01-25T11:18:07.511Z,10.10
2023-01-25T11:20:40.649Z,12.32
2023-01-25T11:23:27.287Z,10.25
2023-01-25T11:26:12.192Z,10.68
2023-01-25T11:28:45.071Z,9.18
2023-01-25T11:31:18.465Z,9.57
2023-01-25T11:33:55.779Z,10.23
2023-01-25T11:36:32.518Z,10.02
2023-01-25T11:39:13.596Z,8.90
2023-01-25T11:41:53.641Z,9.55
2023-01-25T11:44:43.190Z,11.75
2023-01-25T11:47:19.782Z,11.27
2023-01-25T11:49:55.295Z,10.95
2023-01-25T11:52:34.255Z,10.35
2023-01-25T11:55:16.275Z,11.48
2023-01-25T11:57:53.953Z,10.35
2023-01-25T12:00:28.466Z,11.90
2023-01-25T12:03:20.673Z,11.65
2023-01-25T12:05:55.239Z,11.38
2023-01-25T12:08:36.320Z,9.65
2023-01-25T12:11:09.166Z,10.52
2023-01-25T12:13:43.719Z,9.52
2023-01-25T12:16:21.033Z,9.65
2023-01-25T12:19:07.668Z,10.40
2023-01-25T12:21:49.100Z,10.73
2023-01-25T12:24:22.357Z,10.38
2023-01-25T12:26:58.216Z,16.70
2023-01-25T12:29:31.373Z,9.20
2023-01-25T12:32:08.647Z,9.35
2023-01-25T12:34:46.337Z,12.27
2023-01-25T12:37:19.906Z,11.38
2023-01-25T12:39:52.745Z,10.82
2023-01-25T12:42:27.776Z,12.60
2023-01-25T12:45:02.180Z,10.60
2023-01-25T12:47:44.490Z,12.23
2023-01-25T12:50:23.344Z,14.13
2023-01-25T12:53:00.931Z,9.45
2023-01-25T12:55:30.116Z,10.90
2023-01-25T12:58:05.667Z,10.85
2023-01-25T13:00:37.420Z,10.50
2023-01-25T13:03:19.699Z,10.20
2023-01-25T13:05:56.099Z,9.48
2023-01-25T13:08:32.668Z,10.32
2023-01-25T13:11:17.508Z,9.93
2023-01-25T13:13:52.013Z,9.85
2023-01-25T13:16:25.218Z,10.27
2023-01-25T13:18:53.725Z,9.63
2023-01-25T13:21:47.955Z,9.10
2023-01-25T13:24:29.926Z,10.15
2023-01-25T13:27:10.727Z,9.55
2023-01-25T13:29:49.935Z,8.85
2023-01-25T13:32:34.845Z,8.60
2023-01-25T13:35:31.935Z,10.73
2023-01-25T13:38:03.058Z,10.48
2023-01-25T13:40:37.282Z,10.45
2023-01-25T13:43:06.701Z,10.43
2023-01-25T13:45:37.089Z,9.50
2023-01-25T13:48:08.566Z,9.50
2023-01-25T13:50:39.891Z,9.93
2023-01-25T13:53:19.295Z,26.85
2023-01-25T13:55:50.917Z,11.20
2023-01-25T13:58:20.662Z,14.90
2023-01-25T14:03:43.529Z,9.98
2023-01-25T14:06:54.590Z,14.85
2023-01-25T14:09:24.575Z,9.90
2023-01-25T14:11:57.523Z,9.15
2023-01-25T14:14:27.542Z,9.95
2023-01-25T14:17:03.516Z,9.10
2023-01-25T14:19:33.514Z,10.02
2023-01-25T14:22:13.002Z,10.45
2023-01-25T14:24:41.953Z,9.90
2023-01-25T14:27:20.679Z,10.80
2023-01-25T14:29:53.943Z,9.88
2023-01-25T14:32:25.349Z,9.50
2023-01-25T14:34:54.556Z,9.40
2023-01-25T14:37:24.001Z,10.02
2023-01-25T14:39:53.662Z,10.15
2023-01-25T14:42:23.583Z,9.80
2023-01-25T14:44:55.708Z,10.10
2023-01-25T14:47:31.855Z,9.35
2023-01-25T14:50:22.206Z,10.38
2023-01-25T14:52:53.598Z,9.98
2023-01-25T14:55:27.939Z,10.50
2023-01-25T14:58:04.068Z,10.43
2023-01-25T15:00:36.247Z,13.50
2023-01-25T15:03:16.236Z,11.48
2023-01-25T15:05:47.245Z,10.23
2023-01-25T15:08:17.563Z,10.50
2023-01-25T15:10:57.479Z,11.00
2023-01-25T15:13:28.598Z,10.85
2023-01-25T15:15:58.685Z,10.52
2023-01-25T15:18:43.614Z,10.43
2023-01-25T15:21:12.585Z,10.38
2023-01-25T15:23:42.186Z,11.57
2023-01-25T15:26:36.268Z,11.25
2023-01-25T15:29:31.078Z,11.48
2023-01-25T15:31:59.985Z,10.88
2023-01-25T15:34:30.349Z,9.52
2023-01-25T15:36:59.106Z,10.18
2023-01-25T15:39:28.867Z,9.45
2023-01-25T15:41:57.548Z,9.27
2023-01-25T15:44:26.212Z,10.45
2023-01-25T15:46:59.260Z,11.02
2023-01-25T15:49:29.685Z,9.48
2023-01-25T15:52:10.663Z,10.02
2023-01-25T15:54:55.946Z,11.25
2023-01-25T15:57:40.133Z,11.13
2023-01-25T16:00:19.161Z,9.10
2023-01-25T16:02:49.761Z,9.57
2023-01-25T16:05:23.198Z,10.65
2023-01-25T16:07:52.147Z,10.00
2023-01-25T16:10:34.145Z,10.02
2023-01-25T16:13:04.941Z,10.35
2023-01-25T16:15:33.998Z,9.85
2023-01-25T16:18:07.588Z,10.18
2023-01-25T16:20:43.732Z,10.35
2023-01-25T16:23:13.051Z,9.43
2023-01-25T16:25:50.806Z,10.05
2023-01-25T16:28:30.078Z,9.88
2023-01-25T16:31:08.195Z,11.55
2023-01-25T16:33:40.581Z,11.43
2023-01-25T16:36:17.871Z,11.43
2023-01-25T16:38:47.173Z,10.10
2023-01-25T16:41:16.491Z,10.60
2023-01-25T16:43:50.859Z,10.73
2023-01-25T16:46:24.684Z,10.63
2023-01-25T16:49:11.326Z,9.85
2023-01-25T16:51:41.496Z,11.43
2023-01-25T16:54:12.541Z,13.98
2023-01-25T16:56:44.080Z,10.95
2023-01-25T16:59:12.870Z,10.02
2023-01-25T17:01:41.652Z,13.07
2023-01-25T17:04:19.346Z,23.05
2023-01-25T17:06:53.354Z,13.68
2023-01-25T17:09:25.612Z,12.27
2023-01-25T17:11:56.298Z,10.68
2023-01-25T17:14:28.262Z,14.40
2023-01-25T17:17:04.894Z,11.82
2023-01-25T17:19:35.637Z,11.23
2023-01-25T17:22:15.320Z,14.00
2023-01-25T17:24:46.153Z,11.50
2023-01-25T17:27:17.280Z,10.43
2023-01-25T17:29:48.960Z,11.50
2023-01-25T17:32:17.724Z,17.33
2023-01-25T17:34:58.333Z,21.98
2023-01-25T17:37:35.559Z,11.40
2023-01-25T17:40:09.686Z,14.23
2023-01-25T17:42:40.534Z,17.65
2023-01-25T17:45:13.206Z,13.95
2023-01-25T17:47:45.311Z,14.63
2023-01-25T17:50:20.527Z,9.60
2023-01-25T17:52:55.204Z,9.98
2023-01-25T17:55:31.692Z,10.85
2023-01-25T17:58:16.189Z,9.95
2023-01-25T18:00:52.465Z,9.52
2023-01-25T18:03:30.335Z,9.60
2023-01-25T18:06:10.039Z,9.30
2023-01-25T18:08:44.576Z,9.77
2023-01-25T18:11:17.619Z,8.98
2023-01-25T18:13:50.801Z,10.65
2023-01-25T18:16:29.720Z,10.32
2023-01-25T18:19:09.093Z,10.38
2023-01-25T18:21:44.295Z,11.13
2023-01-25T18:24:29.927Z,10.38
2023-01-25T18:27:07.907Z,10.55
2023-01-25T18:29:42.337Z,9.70
2023-01-25T18:32:12.555Z,9.13
2023-01-25T18:34:44.364Z,10.88
2023-01-25T18:37:23.976Z,9.68
2023-01-25T18:39:59.887Z,9.70
2023-01-25T18:42:28.565Z,10.13
2023-01-25T18:44:56.950Z,11.25
2023-01-25T18:47:25.227Z,11.57
2023-01-25T18:49:54.318Z,10.13
2023-01-25T18:52:25.246Z,10.00
2023-01-25T18:54:53.628Z,9.82
2023-01-25T18:57:22.210Z,10.10
2023-01-25T18:59:51.364Z,9.60
2023-01-25T19:02:25.182Z,10.90
2023-01-25T19:05:00.528Z,10.02
2023-01-25T19:07:34.350Z,10.18
2023-01-25T19:10:05.270Z,14.10
2023-01-25T19:12:35.130Z,11.75
2023-01-25T19:15:04.612Z,11.02
2023-01-25T19:17:33.911Z,10.27
2023-01-25T19:20:03.847Z,11.23
2023-01-25T19:22:37.505Z,10.95
2023-01-25T19:25:09.654Z,10.68
2023-01-25T19:27:47.226Z,11.07
2023-01-25T19:30:31.388Z,10.63
2023-01-25T19:33:09.011Z,11.50
2023-01-25T19:35:37.493Z,10.52
2023-01-25T19:38:07.415Z,11.23
2023-01-25T19:40:36.484Z,10.98
2023-01-25T19:43:05.008Z,10.55
2023-01-25T19:45:33.337Z,11.55
2023-01-25T19:48:02.727Z,11.73
